sensor_id;sensor_type;location;lat;lon;timestamp;P1;durP1;ratioP1;P2;durP2;ratioP2
48629;SDS011;34426;52.180;4.462;2024-01-30T00:01:24;20.55;;;14.02;;
48629;SDS011;34426;52.180;4.462;2024-01-30T00:03:50;19.63;;;14.23;;
48629;SDS011;34426;52.180;4.462;2024-01-30T00:06:17;19.10;;;12.80;;
48629;SDS011;34426;52.180;4.462;2024-01-30T00:08:43;24.38;;;14.20;;
48629;SDS011;34426;52.180;4.462;2024-01-30T00:11:09;21.50;;;13.55;;
48629;SDS011;34426;52.180;4.462;2024-01-30T00:13:34;22.25;;;13.65;;
48629;SDS011;34426;52.180;4.462;2024-01-30T00:16:01;19.63;;;13.68;;
48629;SDS011;34426;52.180;4.462;2024-01-30T00:18:26;16.05;;;12.68;;
48629;SDS011;34426;52.180;4.462;2024-01-30T00:20:52;21.00;;;13.65;;
48629;SDS011;34426;52.180;4.462;2024-01-30T00:23:17;19.92;;;13.02;;
48629;SDS011;34426;52.180;4.462;2024-01-30T00:25:43;19.98;;;13.30;;
48629;SDS011;34426;52.180;4.462;2024-01-30T00:28:08;16.42;;;12.85;;
48629;SDS011;34426;52.180;4.462;2024-01-30T00:30:33;19.95;;;13.18;;
48629;SDS011;34426;52.180;4.462;2024-01-30T00:33:00;19.70;;;13.35;;
48629;SDS011;34426;52.180;4.462;2024-01-30T00:35:26;20.60;;;12.35;;
48629;SDS011;34426;52.180;4.462;2024-01-30T00:37:51;17.48;;;12.55;;
48629;SDS011;34426;52.180;4.462;2024-01-30T00:40:17;17.90;;;12.85;;
48629;SDS011;34426;52.180;4.462;2024-01-30T00:42:42;18.05;;;12.57;;
48629;SDS011;34426;52.180;4.462;2024-01-30T00:45:11;23.02;;;12.50;;
48629;SDS011;34426;52.180;4.462;2024-01-30T00:47:37;16.90;;;12.43;;
48629;SDS011;34426;52.180;4.462;2024-01-30T00:50:04;17.17;;;11.40;;
48629;SDS011;34426;52.180;4.462;2024-01-30T00:52:30;18.92;;;12.15;;
48629;SDS011;34426;52.180;4.462;2024-01-30T00:54:56;19.45;;;12.23;;
48629;SDS011;34426;52.180;4.462;2024-01-30T00:57:21;16.15;;;11.93;;
48629;SDS011;34426;52.180;4.462;2024-01-30T00:59:46;21.38;;;12.43;;
48629;SDS011;34426;52.180;4.462;2024-01-30T01:02:12;19.75;;;12.60;;
48629;SDS011;34426;52.180;4.462;2024-01-30T01:04:37;17.02;;;11.68;;
48629;SDS011;34426;52.180;4.462;2024-01-30T01:07:04;22.38;;;12.75;;
48629;SDS011;34426;52.180;4.462;2024-01-30T01:09:30;16.75;;;12.70;;
48629;SDS011;34426;52.180;4.462;2024-01-30T01:11:55;20.50;;;12.32;;
48629;SDS011;34426;52.180;4.462;2024-01-30T01:14:21;18.88;;;11.98;;
48629;SDS011;34426;52.180;4.462;2024-01-30T01:16:46;18.98;;;11.45;;
48629;SDS011;34426;52.180;4.462;2024-01-30T01:19:12;15.63;;;11.60;;
48629;SDS011;34426;52.180;4.462;2024-01-30T01:21:37;16.90;;;12.35;;
48629;SDS011;34426;52.180;4.462;2024-01-30T01:24:04;17.25;;;11.55;;
48629;SDS011;34426;52.180;4.462;2024-01-30T01:26:30;25.67;;;12.27;;
48629;SDS011;34426;52.180;4.462;2024-01-30T01:28:55;17.63;;;11.18;;
48629;SDS011;34426;52.180;4.462;2024-01-30T01:31:20;18.75;;;11.65;;
48629;SDS011;34426;52.180;4.462;2024-01-30T01:33:46;16.70;;;12.30;;
48629;SDS011;34426;52.180;4.462;2024-01-30T01:36:12;17.15;;;12.60;;
48629;SDS011;34426;52.180;4.462;2024-01-30T01:38:38;15.50;;;11.02;;
48629;SDS011;34426;52.180;4.462;2024-01-30T01:41:05;17.33;;;11.48;;
48629;SDS011;34426;52.180;4.462;2024-01-30T01:43:30;17.20;;;11.32;;
48629;SDS011;34426;52.180;4.462;2024-01-30T01:45:56;23.17;;;12.63;;
48629;SDS011;34426;52.180;4.462;2024-01-30T01:48:21;14.52;;;11.50;;
48629;SDS011;34426;52.180;4.462;2024-01-30T01:50:47;23.40;;;12.02;;
48629;SDS011;34426;52.180;4.462;2024-01-30T01:53:12;16.45;;;10.60;;
48629;SDS011;34426;52.180;4.462;2024-01-30T01:55:39;16.23;;;11.55;;
48629;SDS011;34426;52.180;4.462;2024-01-30T01:58:06;17.58;;;11.55;;
48629;SDS011;34426;52.180;4.462;2024-01-30T02:00:33;14.30;;;11.45;;
48629;SDS011;34426;52.180;4.462;2024-01-30T02:02:59;18.33;;;12.07;;
48629;SDS011;34426;52.180;4.462;2024-01-30T02:05:25;18.90;;;12.05;;
48629;SDS011;34426;52.180;4.462;2024-01-30T02:07:51;19.65;;;12.27;;
48629;SDS011;34426;52.180;4.462;2024-01-30T02:10:17;16.10;;;11.38;;
48629;SDS011;34426;52.180;4.462;2024-01-30T02:12:42;16.30;;;10.88;;
48629;SDS011;34426;52.180;4.462;2024-01-30T02:15:12;16.15;;;10.65;;
48629;SDS011;34426;52.180;4.462;2024-01-30T02:17:38;17.38;;;11.38;;
48629;SDS011;34426;52.180;4.462;2024-01-30T02:20:04;17.85;;;12.10;;
48629;SDS011;34426;52.180;4.462;2024-01-30T02:22:31;16.33;;;10.90;;
48629;SDS011;34426;52.180;4.462;2024-01-30T02:24:59;16.33;;;11.45;;
48629;SDS011;34426;52.180;4.462;2024-01-30T02:27:24;16.00;;;11.00;;
48629;SDS011;34426;52.180;4.462;2024-01-30T02:29:50;18.40;;;11.93;;
48629;SDS011;34426;52.180;4.462;2024-01-30T02:32:15;15.60;;;11.32;;
48629;SDS011;34426;52.180;4.462;2024-01-30T02:34:41;16.77;;;11.30;;
48629;SDS011;34426;52.180;4.462;2024-01-30T02:37:06;14.25;;;10.95;;
48629;SDS011;34426;52.180;4.462;2024-01-30T02:39:33;19.58;;;11.55;;
48629;SDS011;34426;52.180;4.462;2024-01-30T02:41:58;21.58;;;11.88;;
48629;SDS011;34426;52.180;4.462;2024-01-30T02:44:24;17.10;;;10.85;;
48629;SDS011;34426;52.180;4.462;2024-01-30T02:46:49;18.13;;;11.25;;
48629;SDS011;34426;52.180;4.462;2024-01-30T02:49:15;18.10;;;11.05;;
48629;SDS011;34426;52.180;4.462;2024-01-30T02:51:40;14.15;;;11.35;;
48629;SDS011;34426;52.180;4.462;2024-01-30T02:54:06;13.68;;;11.00;;
48629;SDS011;34426;52.180;4.462;2024-01-30T02:56:32;16.73;;;12.10;;
48629;SDS011;34426;52.180;4.462;2024-01-30T02:58:58;22.50;;;11.98;;
48629;SDS011;34426;52.180;4.462;2024-01-30T03:01:23;18.73;;;11.52;;
48629;SDS011;34426;52.180;4.462;2024-01-30T03:03:49;15.00;;;11.23;;
48629;SDS011;34426;52.180;4.462;2024-01-30T03:06:14;20.83;;;11.18;;
48629;SDS011;34426;52.180;4.462;2024-01-30T03:08:40;13.27;;;10.93;;
48629;SDS011;34426;52.180;4.462;2024-01-30T03:11:05;17.10;;;11.38;;
48629;SDS011;34426;52.180;4.462;2024-01-30T03:13:32;16.15;;;10.90;;
48629;SDS011;34426;52.180;4.462;2024-01-30T03:15:57;15.27;;;10.93;;
48629;SDS011;34426;52.180;4.462;2024-01-30T03:18:23;15.23;;;10.80;;
48629;SDS011;34426;52.180;4.462;2024-01-30T03:20:48;13.88;;;10.95;;
48629;SDS011;34426;52.180;4.462;2024-01-30T03:23:14;14.77;;;11.30;;
48629;SDS011;34426;52.180;4.462;2024-01-30T03:25:39;15.30;;;10.90;;
48629;SDS011;34426;52.180;4.462;2024-01-30T03:28:05;17.27;;;10.85;;
48629;SDS011;34426;52.180;4.462;2024-01-30T03:30:32;14.88;;;10.45;;
48629;SDS011;34426;52.180;4.462;2024-01-30T03:32:57;19.70;;;11.10;;
48629;SDS011;34426;52.180;4.462;2024-01-30T03:35:23;14.93;;;10.60;;
48629;SDS011;34426;52.180;4.462;2024-01-30T03:37:48;15.43;;;11.00;;
48629;SDS011;34426;52.180;4.462;2024-01-30T03:40:13;12.30;;;10.65;;
48629;SDS011;34426;52.180;4.462;2024-01-30T03:42:39;19.25;;;11.73;;
48629;SDS011;34426;52.180;4.462;2024-01-30T03:45:05;18.13;;;11.05;;
48629;SDS011;34426;52.180;4.462;2024-01-30T03:47:32;16.65;;;10.75;;
48629;SDS011;34426;52.180;4.462;2024-01-30T03:49:58;12.45;;;10.77;;
48629;SDS011;34426;52.180;4.462;2024-01-30T03:52:23;14.38;;;10.88;;
48629;SDS011;34426;52.180;4.462;2024-01-30T03:54:49;18.08;;;11.05;;
48629;SDS011;34426;52.180;4.462;2024-01-30T03:57:14;16.90;;;11.27;;
48629;SDS011;34426;52.180;4.462;2024-01-30T03:59:41;17.88;;;10.57;;
48629;SDS011;34426;52.180;4.462;2024-01-30T04:02:06;17.83;;;11.48;;
48629;SDS011;34426;52.180;4.462;2024-01-30T04:04:33;17.35;;;11.38;;
48629;SDS011;34426;52.180;4.462;2024-01-30T04:06:59;17.27;;;10.40;;
48629;SDS011;34426;52.180;4.462;2024-01-30T04:09:24;15.93;;;10.70;;
48629;SDS011;34426;52.180;4.462;2024-01-30T04:11:50;16.95;;;11.40;;
48629;SDS011;34426;52.180;4.462;2024-01-30T04:14:15;13.90;;;11.23;;
48629;SDS011;34426;52.180;4.462;2024-01-30T04:16:40;18.38;;;11.45;;
48629;SDS011;34426;52.180;4.462;2024-01-30T04:19:06;19.85;;;11.32;;
48629;SDS011;34426;52.180;4.462;2024-01-30T04:21:33;15.38;;;10.85;;
48629;SDS011;34426;52.180;4.462;2024-01-30T04:23:58;18.95;;;10.63;;
48629;SDS011;34426;52.180;4.462;2024-01-30T04:26:24;19.50;;;12.32;;
48629;SDS011;34426;52.180;4.462;2024-01-30T04:28:49;16.45;;;10.70;;
48629;SDS011;34426;52.180;4.462;2024-01-30T04:31:14;17.15;;;11.77;;
48629;SDS011;34426;52.180;4.462;2024-01-30T04:33:40;16.48;;;11.18;;
48629;SDS011;34426;52.180;4.462;2024-01-30T04:36:07;15.98;;;11.15;;
48629;SDS011;34426;52.180;4.462;2024-01-30T04:38:35;19.88;;;10.95;;
48629;SDS011;34426;52.180;4.462;2024-01-30T04:41:00;16.85;;;11.38;;
48629;SDS011;34426;52.180;4.462;2024-01-30T04:43:26;20.15;;;12.10;;
48629;SDS011;34426;52.180;4.462;2024-01-30T04:45:51;16.30;;;10.85;;
48629;SDS011;34426;52.180;4.462;2024-01-30T04:48:16;19.35;;;11.10;;
48629;SDS011;34426;52.180;4.462;2024-01-30T04:50:42;15.98;;;11.07;;
48629;SDS011;34426;52.180;4.462;2024-01-30T04:53:07;21.55;;;9.98;;
48629;SDS011;34426;52.180;4.462;2024-01-30T04:55:34;17.58;;;10.05;;
48629;SDS011;34426;52.180;4.462;2024-01-30T04:58:00;15.23;;;10.82;;
48629;SDS011;34426;52.180;4.462;2024-01-30T05:00:26;18.58;;;10.00;;
48629;SDS011;34426;52.180;4.462;2024-01-30T05:02:51;15.23;;;10.32;;
48629;SDS011;34426;52.180;4.462;2024-01-30T05:05:16;16.40;;;10.10;;
48629;SDS011;34426;52.180;4.462;2024-01-30T05:07:42;16.63;;;10.25;;
48629;SDS011;34426;52.180;4.462;2024-01-30T05:10:08;16.25;;;10.15;;
48629;SDS011;34426;52.180;4.462;2024-01-30T05:12:35;18.17;;;10.48;;
48629;SDS011;34426;52.180;4.462;2024-01-30T05:15:00;17.33;;;9.82;;
48629;SDS011;34426;52.180;4.462;2024-01-30T05:17:26;20.15;;;10.15;;
48629;SDS011;34426;52.180;4.462;2024-01-30T05:19:51;19.83;;;10.57;;
48629;SDS011;34426;52.180;4.462;2024-01-30T05:22:17;12.90;;;9.80;;
48629;SDS011;34426;52.180;4.462;2024-01-30T05:24:42;19.40;;;11.07;;
48629;SDS011;34426;52.180;4.462;2024-01-30T05:27:08;17.85;;;9.93;;
48629;SDS011;34426;52.180;4.462;2024-01-30T05:29:35;17.85;;;9.75;;
48629;SDS011;34426;52.180;4.462;2024-01-30T05:32:00;14.95;;;10.07;;
48629;SDS011;34426;52.180;4.462;2024-01-30T05:34:25;15.05;;;9.60;;
48629;SDS011;34426;52.180;4.462;2024-01-30T05:36:51;17.65;;;9.77;;
48629;SDS011;34426;52.180;4.462;2024-01-30T05:39:16;17.80;;;10.15;;
48629;SDS011;34426;52.180;4.462;2024-01-30T05:41:42;21.15;;;9.65;;
48629;SDS011;34426;52.180;4.462;2024-01-30T05:44:07;18.17;;;10.63;;
48629;SDS011;34426;52.180;4.462;2024-01-30T05:46:35;19.38;;;9.80;;
48629;SDS011;34426;52.180;4.462;2024-01-30T05:49:00;17.27;;;10.00;;
48629;SDS011;34426;52.180;4.462;2024-01-30T05:51:26;15.10;;;9.65;;
48629;SDS011;34426;52.180;4.462;2024-01-30T05:53:51;16.40;;;9.90;;
48629;SDS011;34426;52.180;4.462;2024-01-30T05:56:17;23.65;;;9.93;;
48629;SDS011;34426;52.180;4.462;2024-01-30T05:58:42;18.58;;;9.52;;
48629;SDS011;34426;52.180;4.462;2024-01-30T06:01:08;19.92;;;9.35;;
48629;SDS011;34426;52.180;4.462;2024-01-30T06:03:35;16.90;;;10.15;;
48629;SDS011;34426;52.180;4.462;2024-01-30T06:06:00;14.07;;;9.70;;
48629;SDS011;34426;52.180;4.462;2024-01-30T06:08:26;14.70;;;10.00;;
48629;SDS011;34426;52.180;4.462;2024-01-30T06:10:51;17.08;;;9.40;;
48629;SDS011;34426;52.180;4.462;2024-01-30T06:13:17;20.75;;;9.40;;
48629;SDS011;34426;52.180;4.462;2024-01-30T06:15:42;17.13;;;9.57;;
48629;SDS011;34426;52.180;4.462;2024-01-30T06:18:08;18.00;;;10.23;;
48629;SDS011;34426;52.180;4.462;2024-01-30T06:20:35;20.50;;;11.55;;
48629;SDS011;34426;52.180;4.462;2024-01-30T06:23:01;17.77;;;11.88;;
48629;SDS011;34426;52.180;4.462;2024-01-30T06:25:26;24.60;;;12.80;;
48629;SDS011;34426;52.180;4.462;2024-01-30T06:27:52;21.92;;;11.93;;
48629;SDS011;34426;52.180;4.462;2024-01-30T06:30:17;22.38;;;10.90;;
48629;SDS011;34426;52.180;4.462;2024-01-30T06:32:43;20.23;;;12.25;;
48629;SDS011;34426;52.180;4.462;2024-01-30T06:35:08;23.90;;;11.18;;
48629;SDS011;34426;52.180;4.462;2024-01-30T06:37:35;14.45;;;10.10;;
48629;SDS011;34426;52.180;4.462;2024-01-30T06:40:01;17.48;;;10.48;;
48629;SDS011;34426;52.180;4.462;2024-01-30T06:42:26;17.85;;;9.48;;
48629;SDS011;34426;52.180;4.462;2024-01-30T06:44:52;24.15;;;9.60;;
48629;SDS011;34426;52.180;4.462;2024-01-30T06:47:17;19.65;;;8.98;;
48629;SDS011;34426;52.180;4.462;2024-01-30T06:49:43;22.02;;;9.65;;
48629;SDS011;34426;52.180;4.462;2024-01-30T06:52:08;14.93;;;9.18;;
48629;SDS011;34426;52.180;4.462;2024-01-30T06:54:35;22.02;;;8.98;;
48629;SDS011;34426;52.180;4.462;2024-01-30T06:57:01;17.98;;;9.77;;
48629;SDS011;34426;52.180;4.462;2024-01-30T06:59:26;22.05;;;9.77;;
48629;SDS011;34426;52.180;4.462;2024-01-30T07:01:51;21.05;;;9.18;;
48629;SDS011;34426;52.180;4.462;2024-01-30T07:04:17;20.80;;;8.80;;
48629;SDS011;34426;52.180;4.462;2024-01-30T07:06:42;25.73;;;9.60;;
48629;SDS011;34426;52.180;4.462;2024-01-30T07:09:08;23.02;;;9.50;;
48629;SDS011;34426;52.180;4.462;2024-01-30T07:11:34;20.42;;;10.27;;
48629;SDS011;34426;52.180;4.462;2024-01-30T07:14:00;17.73;;;9.10;;
48629;SDS011;34426;52.180;4.462;2024-01-30T07:16:26;18.48;;;9.95;;
48629;SDS011;34426;52.180;4.462;2024-01-30T07:18:51;19.73;;;9.43;;
48629;SDS011;34426;52.180;4.462;2024-01-30T07:21:16;19.85;;;9.25;;
48629;SDS011;34426;52.180;4.462;2024-01-30T07:23:42;20.33;;;9.85;;
48629;SDS011;34426;52.180;4.462;2024-01-30T07:26:08;19.85;;;9.25;;
48629;SDS011;34426;52.180;4.462;2024-01-30T07:28:35;18.27;;;9.23;;
48629;SDS011;34426;52.180;4.462;2024-01-30T07:31:00;21.98;;;9.88;;
48629;SDS011;34426;52.180;4.462;2024-01-30T07:33:26;20.15;;;10.32;;
48629;SDS011;34426;52.180;4.462;2024-01-30T07:35:51;22.45;;;9.85;;
48629;SDS011;34426;52.180;4.462;2024-01-30T07:38:17;22.33;;;10.43;;
48629;SDS011;34426;52.180;4.462;2024-01-30T07:40:43;20.40;;;10.02;;
48629;SDS011;34426;52.180;4.462;2024-01-30T07:43:08;20.08;;;9.73;;
48629;SDS011;34426;52.180;4.462;2024-01-30T07:45:35;17.05;;;9.77;;
48629;SDS011;34426;52.180;4.462;2024-01-30T07:48:01;22.02;;;9.88;;
48629;SDS011;34426;52.180;4.462;2024-01-30T07:50:26;25.25;;;10.02;;
48629;SDS011;34426;52.180;4.462;2024-01-30T07:52:52;21.30;;;9.60;;
48629;SDS011;34426;52.180;4.462;2024-01-30T07:55:17;25.48;;;10.02;;
48629;SDS011;34426;52.180;4.462;2024-01-30T07:57:43;23.27;;;10.45;;
48629;SDS011;34426;52.180;4.462;2024-01-30T08:00:09;15.32;;;9.55;;
48629;SDS011;34426;52.180;4.462;2024-01-30T08:02:39;20.65;;;10.43;;
48629;SDS011;34426;52.180;4.462;2024-01-30T08:05:05;22.80;;;10.10;;
48629;SDS011;34426;52.180;4.462;2024-01-30T08:07:30;24.77;;;10.73;;
48629;SDS011;34426;52.180;4.462;2024-01-30T08:09:56;25.38;;;10.50;;
48629;SDS011;34426;52.180;4.462;2024-01-30T08:12:21;21.70;;;10.13;;
48629;SDS011;34426;52.180;4.462;2024-01-30T08:14:47;23.38;;;10.45;;
48629;SDS011;34426;52.180;4.462;2024-01-30T08:17:12;24.20;;;11.23;;
48629;SDS011;34426;52.180;4.462;2024-01-30T08:19:39;25.65;;;12.43;;
48629;SDS011;34426;52.180;4.462;2024-01-30T08:22:04;19.70;;;10.55;;
48629;SDS011;34426;52.180;4.462;2024-01-30T08:24:30;19.05;;;10.38;;
48629;SDS011;34426;52.180;4.462;2024-01-30T08:26:55;20.80;;;11.23;;
48629;SDS011;34426;52.180;4.462;2024-01-30T08:29:21;25.73;;;10.50;;
48629;SDS011;34426;52.180;4.462;2024-01-30T08:31:46;22.60;;;10.85;;
48629;SDS011;34426;52.180;4.462;2024-01-30T08:34:12;20.75;;;11.27;;
48629;SDS011;34426;52.180;4.462;2024-01-30T08:36:38;23.58;;;11.32;;
48629;SDS011;34426;52.180;4.462;2024-01-30T08:39:05;28.98;;;12.90;;
48629;SDS011;34426;52.180;4.462;2024-01-30T08:41:30;30.55;;;13.23;;
48629;SDS011;34426;52.180;4.462;2024-01-30T08:43:56;34.90;;;13.57;;
48629;SDS011;34426;52.180;4.462;2024-01-30T08:46:21;26.05;;;14.10;;
48629;SDS011;34426;52.180;4.462;2024-01-30T08:48:47;27.50;;;13.77;;
48629;SDS011;34426;52.180;4.462;2024-01-30T08:51:12;27.08;;;15.25;;
48629;SDS011;34426;52.180;4.462;2024-01-30T08:53:39;28.70;;;14.95;;
48629;SDS011;34426;52.180;4.462;2024-01-30T08:56:05;31.60;;;14.45;;
48629;SDS011;34426;52.180;4.462;2024-01-30T08:58:31;26.70;;;13.73;;
48629;SDS011;34426;52.180;4.462;2024-01-30T09:00:57;35.60;;;13.90;;
48629;SDS011;34426;52.180;4.462;2024-01-30T09:03:23;25.92;;;13.00;;
48629;SDS011;34426;52.180;4.462;2024-01-30T09:05:49;21.33;;;11.85;;
48629;SDS011;34426;52.180;4.462;2024-01-30T09:08:14;29.80;;;12.20;;
48629;SDS011;34426;52.180;4.462;2024-01-30T09:10:41;27.70;;;11.25;;
48629;SDS011;34426;52.180;4.462;2024-01-30T09:13:07;26.92;;;9.43;;
48629;SDS011;34426;52.180;4.462;2024-01-30T09:15:32;28.90;;;8.70;;
48629;SDS011;34426;52.180;4.462;2024-01-30T09:17:57;23.27;;;6.57;;
48629;SDS011;34426;52.180;4.462;2024-01-30T09:20:23;28.00;;;6.88;;
48629;SDS011;34426;52.180;4.462;2024-01-30T09:22:48;24.13;;;6.15;;
48629;SDS011;34426;52.180;4.462;2024-01-30T09:25:14;21.45;;;5.07;;
48629;SDS011;34426;52.180;4.462;2024-01-30T09:27:41;24.98;;;5.10;;
48629;SDS011;34426;52.180;4.462;2024-01-30T09:30:07;29.58;;;5.47;;
48629;SDS011;34426;52.180;4.462;2024-01-30T09:32:33;18.50;;;4.70;;
48629;SDS011;34426;52.180;4.462;2024-01-30T09:34:58;27.27;;;4.32;;
48629;SDS011;34426;52.180;4.462;2024-01-30T09:37:24;24.42;;;4.15;;
48629;SDS011;34426;52.180;4.462;2024-01-30T09:39:49;21.95;;;3.22;;
48629;SDS011;34426;52.180;4.462;2024-01-30T09:42:17;18.27;;;2.78;;
48629;SDS011;34426;52.180;4.462;2024-01-30T09:44:52;16.63;;;2.78;;
48629;SDS011;34426;52.180;4.462;2024-01-30T09:47:18;20.33;;;3.47;;
48629;SDS011;34426;52.180;4.462;2024-01-30T09:49:44;19.08;;;2.40;;
48629;SDS011;34426;52.180;4.462;2024-01-30T09:52:10;11.38;;;1.83;;
48629;SDS011;34426;52.180;4.462;2024-01-30T09:54:36;15.05;;;2.03;;
48629;SDS011;34426;52.180;4.462;2024-01-30T09:57:03;13.63;;;1.67;;
48629;SDS011;34426;52.180;4.462;2024-01-30T09:59:29;13.07;;;1.73;;
48629;SDS011;34426;52.180;4.462;2024-01-30T10:01:56;19.88;;;3.72;;
48629;SDS011;34426;52.180;4.462;2024-01-30T10:04:22;11.95;;;1.75;;
48629;SDS011;34426;52.180;4.462;2024-01-30T10:06:47;12.60;;;2.78;;
48629;SDS011;34426;52.180;4.462;2024-01-30T10:09:13;9.07;;;1.60;;
48629;SDS011;34426;52.180;4.462;2024-01-30T10:11:39;10.85;;;2.22;;
48629;SDS011;34426;52.180;4.462;2024-01-30T10:14:04;10.88;;;1.73;;
48629;SDS011;34426;52.180;4.462;2024-01-30T10:16:29;16.45;;;1.95;;
48629;SDS011;34426;52.180;4.462;2024-01-30T10:18:56;11.50;;;1.92;;
48629;SDS011;34426;52.180;4.462;2024-01-30T10:21:22;9.05;;;1.63;;
48629;SDS011;34426;52.180;4.462;2024-01-30T10:23:48;15.30;;;1.55;;
48629;SDS011;34426;52.180;4.462;2024-01-30T10:26:15;16.30;;;1.67;;
48629;SDS011;34426;52.180;4.462;2024-01-30T10:28:41;12.30;;;1.63;;
48629;SDS011;34426;52.180;4.462;2024-01-30T10:31:07;9.43;;;1.83;;
48629;SDS011;34426;52.180;4.462;2024-01-30T10:33:32;9.32;;;1.30;;
48629;SDS011;34426;52.180;4.462;2024-01-30T10:36:00;10.32;;;1.58;;
48629;SDS011;34426;52.180;4.462;2024-01-30T10:38:27;9.90;;;1.38;;
48629;SDS011;34426;52.180;4.462;2024-01-30T10:40:54;9.77;;;1.63;;
48629;SDS011;34426;52.180;4.462;2024-01-30T10:43:21;7.53;;;1.52;;
48629;SDS011;34426;52.180;4.462;2024-01-30T10:45:49;11.65;;;1.63;;
48629;SDS011;34426;52.180;4.462;2024-01-30T10:48:18;17.95;;;1.90;;
48629;SDS011;34426;52.180;4.462;2024-01-30T10:50:47;12.52;;;1.83;;
48629;SDS011;34426;52.180;4.462;2024-01-30T10:53:16;12.90;;;2.05;;
48629;SDS011;34426;52.180;4.462;2024-01-30T10:55:43;13.48;;;2.08;;
48629;SDS011;34426;52.180;4.462;2024-01-30T10:58:11;14.63;;;2.17;;
48629;SDS011;34426;52.180;4.462;2024-01-30T11:00:37;15.38;;;2.35;;
48629;SDS011;34426;52.180;4.462;2024-01-30T11:03:03;19.27;;;2.58;;
48629;SDS011;34426;52.180;4.462;2024-01-30T11:05:30;20.45;;;2.63;;
48629;SDS011;34426;52.180;4.462;2024-01-30T11:07:58;18.17;;;2.92;;
48629;SDS011;34426;52.180;4.462;2024-01-30T11:10:25;25.52;;;3.75;;
48629;SDS011;34426;52.180;4.462;2024-01-30T11:12:51;13.85;;;2.58;;
48629;SDS011;34426;52.180;4.462;2024-01-30T11:15:16;13.70;;;2.10;;
48629;SDS011;34426;52.180;4.462;2024-01-30T11:17:42;22.55;;;3.47;;
48629;SDS011;34426;52.180;4.462;2024-01-30T11:20:09;17.40;;;2.47;;
48629;SDS011;34426;52.180;4.462;2024-01-30T11:22:35;16.38;;;2.50;;
48629;SDS011;34426;52.180;4.462;2024-01-30T11:25:01;13.18;;;2.30;;
48629;SDS011;34426;52.180;4.462;2024-01-30T11:27:28;18.88;;;2.40;;
48629;SDS011;34426;52.180;4.462;2024-01-30T11:29:53;18.60;;;3.42;;
48629;SDS011;34426;52.180;4.462;2024-01-30T11:32:25;17.35;;;2.40;;
48629;SDS011;34426;52.180;4.462;2024-01-30T11:34:51;18.95;;;2.95;;
48629;SDS011;34426;52.180;4.462;2024-01-30T11:37:17;14.15;;;2.67;;
48629;SDS011;34426;52.180;4.462;2024-01-30T11:39:46;17.35;;;3.20;;
48629;SDS011;34426;52.180;4.462;2024-01-30T11:42:13;16.05;;;2.35;;
48629;SDS011;34426;52.180;4.462;2024-01-30T11:44:41;15.38;;;2.30;;
48629;SDS011;34426;52.180;4.462;2024-01-30T11:47:06;16.08;;;2.47;;
48629;SDS011;34426;52.180;4.462;2024-01-30T11:49:32;13.30;;;2.35;;
48629;SDS011;34426;52.180;4.462;2024-01-30T11:51:57;15.68;;;2.58;;
48629;SDS011;34426;52.180;4.462;2024-01-30T11:54:23;15.73;;;2.70;;
48629;SDS011;34426;52.180;4.462;2024-01-30T11:56:48;18.25;;;2.42;;
48629;SDS011;34426;52.180;4.462;2024-01-30T11:59:14;23.73;;;2.70;;
48629;SDS011;34426;52.180;4.462;2024-01-30T12:01:41;16.63;;;2.40;;
48629;SDS011;34426;52.180;4.462;2024-01-30T12:04:07;14.82;;;2.25;;
48629;SDS011;34426;52.180;4.462;2024-01-30T12:06:33;25.00;;;3.08;;
48629;SDS011;34426;52.180;4.462;2024-01-30T12:08:58;18.23;;;2.70;;
48629;SDS011;34426;52.180;4.462;2024-01-30T12:11:25;19.60;;;3.25;;
48629;SDS011;34426;52.180;4.462;2024-01-30T12:13:51;18.42;;;3.08;;
48629;SDS011;34426;52.180;4.462;2024-01-30T12:16:17;18.75;;;3.05;;
48629;SDS011;34426;52.180;4.462;2024-01-30T12:18:44;22.33;;;4.82;;
48629;SDS011;34426;52.180;4.462;2024-01-30T12:21:10;19.02;;;2.85;;
48629;SDS011;34426;52.180;4.462;2024-01-30T12:23:35;20.48;;;2.65;;
48629;SDS011;34426;52.180;4.462;2024-01-30T12:26:01;19.88;;;3.03;;
48629;SDS011;34426;52.180;4.462;2024-01-30T12:28:27;24.30;;;3.25;;
48629;SDS011;34426;52.180;4.462;2024-01-30T12:30:55;16.02;;;2.40;;
48629;SDS011;34426;52.180;4.462;2024-01-30T12:33:21;22.33;;;3.40;;
48629;SDS011;34426;52.180;4.462;2024-01-30T12:35:48;22.95;;;3.42;;
48629;SDS011;34426;52.180;4.462;2024-01-30T12:38:13;15.20;;;2.15;;
48629;SDS011;34426;52.180;4.462;2024-01-30T12:40:39;15.90;;;2.28;;
48629;SDS011;34426;52.180;4.462;2024-01-30T12:43:05;23.33;;;3.00;;
48629;SDS011;34426;52.180;4.462;2024-01-30T12:45:30;21.13;;;3.08;;
48629;SDS011;34426;52.180;4.462;2024-01-30T12:47:55;15.40;;;2.20;;
48629;SDS011;34426;52.180;4.462;2024-01-30T12:50:21;18.35;;;2.78;;
48629;SDS011;34426;52.180;4.462;2024-01-30T12:52:48;21.30;;;2.92;;
48629;SDS011;34426;52.180;4.462;2024-01-30T12:55:13;11.98;;;3.17;;
48629;SDS011;34426;52.180;4.462;2024-01-30T12:57:39;11.95;;;2.95;;
48629;SDS011;34426;52.180;4.462;2024-01-30T13:00:05;12.82;;;3.25;;
48629;SDS011;34426;52.180;4.462;2024-01-30T13:02:31;13.15;;;3.45;;
48629;SDS011;34426;52.180;4.462;2024-01-30T13:04:57;13.82;;;3.83;;
48629;SDS011;34426;52.180;4.462;2024-01-30T13:07:22;17.52;;;4.45;;
48629;SDS011;34426;52.180;4.462;2024-01-30T13:09:49;14.23;;;4.68;;
48629;SDS011;34426;52.180;4.462;2024-01-30T13:12:14;15.18;;;3.97;;
48629;SDS011;34426;52.180;4.462;2024-01-30T13:14:40;13.93;;;4.03;;
48629;SDS011;34426;52.180;4.462;2024-01-30T13:17:07;20.73;;;4.72;;
48629;SDS011;34426;52.180;4.462;2024-01-30T13:19:33;16.88;;;4.25;;
48629;SDS011;34426;52.180;4.462;2024-01-30T13:21:58;23.52;;;4.45;;
48629;SDS011;34426;52.180;4.462;2024-01-30T13:24:23;19.20;;;4.75;;
48629;SDS011;34426;52.180;4.462;2024-01-30T13:26:50;20.25;;;4.35;;
48629;SDS011;34426;52.180;4.462;2024-01-30T13:29:16;17.95;;;4.80;;
48629;SDS011;34426;52.180;4.462;2024-01-30T13:31:41;16.45;;;3.60;;
48629;SDS011;34426;52.180;4.462;2024-01-30T13:34:07;22.33;;;4.47;;
48629;SDS011;34426;52.180;4.462;2024-01-30T13:36:32;21.63;;;4.93;;
48629;SDS011;34426;52.180;4.462;2024-01-30T13:38:58;19.00;;;4.13;;
48629;SDS011;34426;52.180;4.462;2024-01-30T13:41:23;14.68;;;4.05;;
48629;SDS011;34426;52.180;4.462;2024-01-30T13:43:50;22.45;;;5.18;;
48629;SDS011;34426;52.180;4.462;2024-01-30T13:46:15;17.92;;;4.65;;
48629;SDS011;34426;52.180;4.462;2024-01-30T13:48:41;20.92;;;5.07;;
48629;SDS011;34426;52.180;4.462;2024-01-30T13:51:06;22.73;;;4.68;;
48629;SDS011;34426;52.180;4.462;2024-01-30T13:53:32;25.67;;;5.80;;
48629;SDS011;34426;52.180;4.462;2024-01-30T13:55:57;21.63;;;5.22;;
48629;SDS011;34426;52.180;4.462;2024-01-30T13:58:23;18.15;;;5.32;;
48629;SDS011;34426;52.180;4.462;2024-01-30T14:00:50;21.33;;;5.10;;
48629;SDS011;34426;52.180;4.462;2024-01-30T14:03:15;16.45;;;4.10;;
48629;SDS011;34426;52.180;4.462;2024-01-30T14:05:40;16.38;;;4.85;;
48629;SDS011;34426;52.180;4.462;2024-01-30T14:08:06;18.60;;;4.38;;
48629;SDS011;34426;52.180;4.462;2024-01-30T14:10:31;18.70;;;4.43;;
48629;SDS011;34426;52.180;4.462;2024-01-30T14:12:57;13.93;;;3.70;;
48629;SDS011;34426;52.180;4.462;2024-01-30T14:15:22;20.80;;;4.63;;
48629;SDS011;34426;52.180;4.462;2024-01-30T14:17:49;13.77;;;4.50;;
48629;SDS011;34426;52.180;4.462;2024-01-30T14:20:15;24.40;;;5.65;;